Time;durP1;ratioP1;P1;durP2;ratioP2;P2;SDS_P1;SDS_P2;PMS_P1;PMS_P2;Temp;Humidity;BMP_temperature;BMP_pressure;BME280_temperature;BME280_humidity;BME280_pressure;Samples;Min_cycle;Max_cycle;Signal;HPM_P1;HPM_P2
2023/08/12 00:00:56;;;;;;;;;;;;;;;24.88;65.86;100767.72;4992690;28;6946;-72
2023/08/12 00:03:21;;;;;;;;;;;;;;;24.88;65.46;100767.72;4994870;28;6961;-72
2023/08/12 00:05:47;;;;;;;;;;;;;;;24.87;65.49;100765.97;4996816;28;6971;-72
2023/08/12 00:08:12;;;;;;;;;;;;;;;24.89;65.92;100760.72;5000445;28;7290;-72
2023/08/12 00:10:38;;;;;;;;;;;;;;;24.90;65.70;100750.22;4999113;28;7176;-72
2023/08/12 00:13:03;;;;;;;;;;;;;;;24.92;65.57;100751.06;4993367;28;6783;-73
2023/08/12 00:15:29;;;;;;;;;;;;;;;24.95;66.12;100750.19;4993814;28;7447;-73
2023/08/12 00:17:54;;;;;;;;;;;;;;;24.95;65.86;100742.34;4999477;28;7068;-73
2023/08/12 00:20:20;;;;;;;;;;;;;;;24.96;65.72;100744.97;4992492;28;6780;-73
2023/08/12 00:22:45;;;;;;;;;;;;;;;24.99;65.89;100746.66;4993853;28;6860;-74
2023/08/12 00:25:10;;;;;;;;;;;;;;;24.99;65.66;100745.81;4992563;28;6815;-73
2023/08/12 00:27:37;;;;;;;;;;;;;;;24.97;66.25;100745.81;4985735;28;7282;-74
2023/08/12 00:30:04;;;;;;;;;;;;;;;24.97;65.60;100740.56;4996903;28;6799;-73
2023/08/12 00:32:29;;;;;;;;;;;;;;;24.97;65.68;100735.31;4993598;28;6808;-74
2023/08/12 00:34:55;;;;;;;;;;;;;;;24.97;66.11;100735.31;4991794;28;6796;-73
2023/08/12 00:37:21;;;;;;;;;;;;;;;24.95;65.98;100737.09;4986716;28;6800;-74
2023/08/12 00:39:46;;;;;;;;;;;;;;;24.94;65.63;100727.50;4991368;28;7079;-74
2023/08/12 00:42:11;;;;;;;;;;;;;;;24.93;66.23;100729.22;4990644;28;6953;-73
2023/08/12 00:44:37;;;;;;;;;;;;;;;24.93;66.16;100731.00;4994483;28;6922;-73
2023/08/12 00:47:03;;;;;;;;;;;;;;;24.91;66.10;100727.47;4992064;28;6799;-73
2023/08/12 00:49:28;;;;;;;;;;;;;;;24.91;65.81;100724.88;4979531;28;6846;-73
2023/08/12 00:51:54;;;;;;;;;;;;;;;24.91;66.14;100722.25;4974849;28;6862;-74
2023/08/12 00:54:21;;;;;;;;;;;;;;;24.91;66.02;100720.50;4994674;28;6957;-73
2023/08/12 00:56:49;;;;;;;;;;;;;;;24.92;65.89;100716.16;4992942;28;7162;-73
2023/08/12 00:59:17;;;;;;;;;;;;;;;24.93;65.97;100717.88;4991732;28;7083;-73
2023/08/12 01:01:43;;;;;;;;;;;;;;;24.94;66.40;100719.63;4996617;28;7002;-73
2023/08/12 01:04:09;;;;;;;;;;;;;;;24.96;65.94;100718.75;4993273;28;7125;-74
2023/08/12 01:06:35;;;;;;;;;;;;;;;24.99;65.85;100711.72;4990703;28;7078;-74
2023/08/12 01:09:04;;;;;;;;;;;;;;;24.99;66.23;100707.34;5008733;28;8701;-73
2023/08/12 01:11:45;;;;;;;;;;;;;;;25.00;65.98;100703.84;4993138;28;6959;-73
2023/08/12 01:14:23;;;;;;;;;;;;;;;25.00;66.61;100698.59;4992040;28;6948;-73
2023/08/12 01:16:53;;;;;;;;;;;;;;;25.02;66.53;100696.84;5008305;28;7019;-73
2023/08/12 01:19:30;;;;;;;;;;;;;;;25.05;65.93;100696.81;4987646;28;7898;-73
2023/08/12 01:22:00;;;;;;;;;;;;;;;25.07;66.55;100695.03;4981355;28;7066;-73
2023/08/12 01:24:26;;;;;;;;;;;;;;;25.09;66.01;100688.03;4994035;28;7167;-73
2023/08/12 01:26:51;;;;;;;;;;;;;;;25.12;65.85;100683.66;4994281;28;6851;-73
2023/08/12 01:29:18;;;;;;;;;;;;;;;25.15;66.39;100692.34;4981175;28;6963;-73
2023/08/12 01:32:04;;;;;;;;;;;;;;;25.18;65.81;100684.47;4973226;28;6996;-74
2023/08/12 01:34:42;;;;;;;;;;;;;;;25.21;65.91;100686.22;4991418;28;6800;-73
2023/08/12 01:37:11;;;;;;;;;;;;;;;25.21;66.11;100681.81;4992358;28;6942;-73
2023/08/12 01:39:39;;;;;;;;;;;;;;;25.22;66.12;100675.69;4985867;28;7169;-73
2023/08/12 01:42:06;;;;;;;;;;;;;;;25.24;66.40;100673.06;4990354;28;6819;-74
2023/08/12 01:44:31;;;;;;;;;;;;;;;25.26;66.28;100670.44;4975820;28;7014;-73
2023/08/12 01:46:57;;;;;;;;;;;;;;;25.26;66.00;100670.44;4987751;28;6811;-73
2023/08/12 01:49:24;;;;;;;;;;;;;;;25.25;65.82;100677.44;4984048;28;6795;-74
2023/08/12 01:51:49;;;;;;;;;;;;;;;25.24;65.90;100681.78;4987631;28;6819;-74
2023/08/12 01:54:15;;;;;;;;;;;;;;;25.23;66.12;100674.81;4995146;28;6796;-74
2023/08/12 01:56:40;;;;;;;;;;;;;;;25.23;66.33;100671.34;4990341;28;6800;-73
2023/08/12 01:59:06;;;;;;;;;;;;;;;25.22;66.18;100667.81;4991022;28;7007;-73
2023/08/12 02:01:31;;;;;;;;;;;;;;;25.23;65.90;100671.34;4975639;28;9001;-73
2023/08/12 02:03:57;;;;;;;;;;;;;;;25.22;66.32;100667.81;5006731;28;6800;-74
2023/08/12 02:06:22;;;;;;;;;;;;;;;25.22;66.47;100664.34;4994345;28;6816;-73
2023/08/12 02:08:48;;;;;;;;;;;;;;;25.19;65.95;100660.00;4982202;28;7391;-73
2023/08/12 02:11:13;;;;;;;;;;;;;;;25.17;66.38;100659.16;4982217;28;7029;-73
2023/08/12 02:13:39;;;;;;;;;;;;;;;25.15;66.60;100665.28;4991548;28;6787;-73
2023/08/12 02:16:04;;;;;;;;;;;;;;;25.13;65.88;100662.66;4991811;28;6799;-73
2023/08/12 02:18:30;;;;;;;;;;;;;;;25.12;65.86;100665.31;4988738;28;6788;-73
2023/08/12 02:20:55;;;;;;;;;;;;;;;25.10;66.00;100665.31;4994016;28;6959;-74
2023/08/12 02:23:20;;;;;;;;;;;;;;;25.12;66.22;100660.06;4982373;28;7053;-74
2023/08/12 02:25:46;;;;;;;;;;;;;;;25.10;66.71;100655.69;4989644;28;6788;-73
2023/08/12 02:28:12;;;;;;;;;;;;;;;25.11;66.53;100643.44;4987787;28;6776;-74
2023/08/12 02:30:37;;;;;;;;;;;;;;;25.12;66.67;100641.72;4982446;28;6973;-73
2023/08/12 02:33:03;;;;;;;;;;;;;;;25.13;66.51;100636.44;4994072;28;7018;-72
2023/08/12 02:35:28;;;;;;;;;;;;;;;25.14;66.53;100638.16;4989579;28;6784;-72
2023/08/12 02:37:54;;;;;;;;;;;;;;;25.15;65.89;100633.81;4988182;28;6800;-72
2023/08/12 02:40:19;;;;;;;;;;;;;;;25.13;66.37;100631.19;4981619;28;6993;-72
2023/08/12 02:42:45;;;;;;;;;;;;;;;25.12;66.18;100624.22;4990199;28;6780;-71
2023/08/12 02:45:10;;;;;;;;;;;;;;;25.12;66.15;100623.34;4996574;28;6943;-72
2023/08/12 02:47:36;;;;;;;;;;;;;;;25.12;65.68;100618.13;4990806;28;7122;-72
2023/08/12 02:50:02;;;;;;;;;;;;;;;25.09;66.23;100625.09;5009213;28;7294;-71
2023/08/12 02:52:28;;;;;;;;;;;;;;;25.05;66.05;100620.78;4979228;28;7397;-72
2023/08/12 02:54:55;;;;;;;;;;;;;;;25.02;65.69;100623.44;4989042;28;6884;-74
2023/08/12 02:57:20;;;;;;;;;;;;;;;24.99;66.38;100612.97;5008395;28;7433;-74
2023/08/12 02:59:45;;;;;;;;;;;;;;;24.97;66.10;100604.25;4994418;28;7097;-73
2023/08/12 03:02:11;;;;;;;;;;;;;;;24.96;65.86;100610.38;5013444;28;6978;-73
2023/08/12 03:04:36;;;;;;;;;;;;;;;24.96;66.37;100602.50;4979110;28;7320;-73
2023/08/12 03:07:02;;;;;;;;;;;;;;;24.95;65.98;100603.41;4996136;28;6807;-73
2023/08/12 03:09:28;;;;;;;;;;;;;;;24.94;66.11;100604.28;4987284;28;6947;-73
2023/08/12 03:11:53;;;;;;;;;;;;;;;24.92;66.23;100595.56;4973683;28;8588;-74
2023/08/12 03:14:19;;;;;;;;;;;;;;;24.90;65.69;100589.44;4985429;28;7323;-74
2023/08/12 03:16:44;;;;;;;;;;;;;;;24.86;65.54;100579.88;4993750;28;6775;-74
2023/08/12 03:19:10;;;;;;;;;;;;;;;24.80;65.51;100573.78;5000869;28;6776;-74
2023/08/12 03:21:35;;;;;;;;;;;;;;;24.74;65.57;100567.72;5013079;28;6873;-74
2023/08/12 03:24:01;;;;;;;;;;;;;;;24.69;65.77;100563.38;4995923;28;6832;-73
2023/08/12 03:26:26;;;;;;;;;;;;;;;24.63;65.94;100563.44;4992388;28;6791;-73
2023/08/12 03:28:52;;;;;;;;;;;;;;;24.58;65.59;100561.72;4994847;28;6779;-74
2023/08/12 03:31:17;;;;;;;;;;;;;;;24.54;66.33;100569.63;4994482;28;7257;-72
2023/08/12 03:33:43;;;;;;;;;;;;;;;24.52;66.10;100565.25;4996111;28;6895;-73
2023/08/12 03:36:09;;;;;;;;;;;;;;;24.53;66.07;100572.25;4994019;28;6795;-74
2023/08/12 03:38:35;;;;;;;;;;;;;;;24.52;66.38;100583.59;4974495;28;7039;-73
2023/08/12 03:41:02;;;;;;;;;;;;;;;24.53;66.31;100580.97;4992078;28;7270;-74
2023/08/12 03:43:27;;;;;;;;;;;;;;;24.53;66.40;100582.72;4996220;28;6943;-74
2023/08/12 03:45:53;;;;;;;;;;;;;;;24.53;66.67;100578.34;4991803;28;6923;-74
2023/08/12 03:48:18;;;;;;;;;;;;;;;24.53;66.18;100583.59;5008436;28;6799;-73
2023/08/12 03:50:46;;;;;;;;;;;;;;;24.54;66.79;100581.84;5008365;28;6926;-73
2023/08/12 03:53:12;;;;;;;;;;;;;;;24.57;66.20;100578.31;5008885;28;7264;-73
2023/08/12 03:55:38;;;;;;;;;;;;;;;24.60;66.80;100568.69;4993990;28;7111;-74
2023/08/12 03:58:03;;;;;;;;;;;;;;;24.62;66.79;100566.94;4984728;28;6962;-73
2023/08/12 04:00:29;;;;;;;;;;;;;;;24.66;66.26;100567.78;4993544;28;6946;-73
2023/08/12 04:02:54;;;;;;;;;;;;;;;24.68;66.33;100563.38;4987529;28;6796;-74
2023/08/12 04:05:20;;;;;;;;;;;;;;;24.68;66.30;100566.00;5008496;28;6994;-74
2023/08/12 04:07:45;;;;;;;;;;;;;;;24.67;65.96;100561.66;4988899;28;7078;-74
2023/08/12 04:10:10;;;;;;;;;;;;;;;24.66;66.14;100557.31;4980425;28;7233;-74
2023/08/12 04:12:36;;;;;;;;;;;;;;;24.64;66.27;100549.44;4983076;28;6984;-74
2023/08/12 04:15:04;;;;;;;;;;;;;;;24.62;66.16;100539.84;4995992;28;6784;-73
2023/08/12 04:17:30;;;;;;;;;;;;;;;24.59;65.97;100539.88;4977783;28;7208;-73
2023/08/12 04:19:55;;;;;;;;;;;;;;;24.57;66.17;100541.66;5000573;28;7172;-75
2023/08/12 04:22:21;;;;;;;;;;;;;;;24.53;66.64;100536.44;5010719;28;6855;-73
2023/08/12 04:24:46;;;;;;;;;;;;;;;24.51;66.26;100537.34;4990089;28;7160;-74
2023/08/12 04:27:12;;;;;;;;;;;;;;;24.49;66.60;100539.09;4993476;28;6780;-74
2023/08/12 04:29:37;;;;;;;;;;;;;;;24.46;66.10;100539.97;4993355;28;6848;-75
2023/08/12 04:32:03;;;;;;;;;;;;;;;24.44;66.35;100533.91;4993934;28;6788;-74
2023/08/12 04:34:28;;;;;;;;;;;;;;;24.46;67.03;100537.38;4993393;28;6930;-74
2023/08/12 04:36:54;;;;;;;;;;;;;;;24.45;66.64;100537.38;4983347;28;7250;-73
2023/08/12 04:39:19;;;;;;;;;;;;;;;24.46;66.81;100534.75;4988894;28;7161;-74
2023/08/12 04:41:45;;;;;;;;;;;;;;;24.49;66.38;100533.84;4993980;28;7109;-74
2023/08/12 04:44:10;;;;;;;;;;;;;;;24.50;66.85;100520.72;4993669;28;6829;-73
2023/08/12 04:46:36;;;;;;;;;;;;;;;24.57;66.81;100539.03;4996433;28;6964;-75
2023/08/12 04:49:01;;;;;;;;;;;;;;;24.59;66.86;100532.03;5007642;28;8200;-74
2023/08/12 04:51:27;;;;;;;;;;;;;;;24.61;67.06;100528.50;4991532;28;6815;-74
2023/08/12 04:53:53;;;;;;;;;;;;;;;24.61;66.44;100525.91;4985805;28;6819;-73
2023/08/12 04:56:18;;;;;;;;;;;;;;;24.58;67.12;100525.94;4994709;28;7395;-75
2023/08/12 04:58:43;;;;;;;;;;;;;;;24.57;66.82;100523.31;4991244;28;6852;-74
2023/08/12 05:01:09;;;;;;;;;;;;;;;24.54;67.03;100519.84;4992187;28;6882;-75
2023/08/12 05:03:34;;;;;;;;;;;;;;;24.50;67.12;100523.34;4992702;28;7002;-75
2023/08/12 05:06:00;;;;;;;;;;;;;;;24.47;67.27;100515.53;5000705;28;7066;-75
2023/08/12 05:08:25;;;;;;;;;;;;;;;24.43;67.28;100519.03;4990072;28;8240;-75
2023/08/12 05:10:51;;;;;;;;;;;;;;;24.41;67.28;100526.03;4993656;28;8186;-75
2023/08/12 05:13:17;;;;;;;;;;;;;;;24.37;66.77;100526.97;4988554;28;6858;-74
2023/08/12 05:15:45;;;;;;;;;;;;;;;24.33;66.70;100540.94;5006763;28;7240;-74
2023/08/12 05:18:11;;;;;;;;;;;;;;;24.25;66.96;100536.63;4976401;28;7008;-74
2023/08/12 05:20:36;;;;;;;;;;;;;;;24.18;66.83;100550.66;4979987;28;7488;-74
2023/08/12 05:23:02;;;;;;;;;;;;;;;24.11;67.05;100546.31;4986241;28;7588;-74
2023/08/12 05:25:27;;;;;;;;;;;;;;;24.03;67.07;100548.94;4984804;28;8639;-74
2023/08/12 05:27:53;;;;;;;;;;;;;;;23.96;66.62;100557.72;4987704;28;7129;-74
2023/08/12 05:30:18;;;;;;;;;;;;;;;23.89;66.78;100550.75;4985166;28;6930;-75
2023/08/12 05:32:44;;;;;;;;;;;;;;;23.79;66.69;100563.03;4988299;28;6783;-74
2023/08/12 05:35:09;;;;;;;;;;;;;;;23.71;67.43;100553.47;4990796;28;6788;-76
2023/08/12 05:37:35;;;;;;;;;;;;;;;23.64;66.75;100554.34;4990410;28;6851;-74
2023/08/12 05:40:00;;;;;;;;;;;;;;;23.58;67.45;100546.53;4981623;28;6960;-75
2023/08/12 05:42:26;;;;;;;;;;;;;;;23.54;66.81;100542.19;4991177;28;6975;-74
2023/08/12 05:44:51;;;;;;;;;;;;;;;23.47;67.71;100540.47;4972903;28;7150;-75
2023/08/12 05:47:17;;;;;;;;;;;;;;;23.43;67.40;100532.63;4985380;28;6937;-75
2023/08/12 05:49:42;;;;;;;;;;;;;;;23.39;67.27;100538.75;4987061;28;7153;-74
2023/08/12 05:52:08;;;;;;;;;;;;;;;23.36;67.41;100533.53;5003211;28;6776;-73
2023/08/12 05:54:33;;;;;;;;;;;;;;;23.33;67.28;100525.69;4981139;28;7025;-74
2023/08/12 05:56:59;;;;;;;;;;;;;;;23.31;67.50;100530.06;4987459;28;6872;-73
2023/08/12 05:59:24;;;;;;;;;;;;;;;23.28;67.59;100519.63;4989201;28;7026;-73
2023/08/12 06:01:50;;;;;;;;;;;;;;;23.26;67.72;100510.84;4990738;28;6863;-72
2023/08/12 06:04:15;;;;;;;;;;;;;;;23.25;67.81;100520.47;4987222;28;8089;-72
2023/08/12 06:06:42;;;;;;;;;;;;;;;23.25;68.04;100528.31;4990491;28;7856;-73
2023/08/12 06:09:07;;;;;;;;;;;;;;;23.27;67.78;100533.50;4988223;28;6803;-72
2023/08/12 06:11:33;;;;;;;;;;;;;;;23.27;67.87;100537.00;4992276;28;7278;-72
2023/08/12 06:13:58;;;;;;;;;;;;;;;23.29;67.55;100531.81;4988249;28;6795;-72
2023/08/12 06:16:24;;;;;;;;;;;;;;;23.29;68.15;100524.81;4989085;28;6872;-73
2023/08/12 06:18:49;;;;;;;;;;;;;;;23.30;68.14;100516.09;4989766;28;7102;-72
2023/08/12 06:21:15;;;;;;;;;;;;;;;23.30;68.39;100504.78;4987033;28;7218;-72
2023/08/12 06:23:40;;;;;;;;;;;;;;;23.32;68.41;100489.06;4990405;28;6941;-72
2023/08/12 06:26:06;;;;;;;;;;;;;;;23.33;68.13;100480.38;4977796;28;6975;-72
2023/08/12 06:28:31;;;;;;;;;;;;;;;23.35;68.44;100471.63;4985732;28;7244;-72
2023/08/12 06:30:58;;;;;;;;;;;;;;;23.39;68.21;100462.94;4984000;28;6780;-72
2023/08/12 06:33:23;;;;;;;;;;;;;;;23.42;68.64;100475.13;4998703;28;7064;-72
2023/08/12 06:35:50;;;;;;;;;;;;;;;23.45;68.57;100480.34;4979177;28;7028;-72
2023/08/12 06:38:15;;;;;;;;;;;;;;;23.49;68.06;100484.66;4992731;28;6816;-72
2023/08/12 06:40:41;;;;;;;;;;;;;;;23.52;68.76;100492.50;4992231;28;7038;-72
2023/08/12 06:43:08;;;;;;;;;;;;;;;23.55;68.37;100491.59;4992364;28;6784;-72
2023/08/12 06:45:34;;;;;;;;;;;;;;;23.62;68.65;100476.78;4989382;28;6819;-73
2023/08/12 06:47:59;;;;;;;;;;;;;;;23.68;68.28;100472.38;4989958;28;6813;-72
2023/08/12 06:50:25;;;;;;;;;;;;;;;23.68;68.42;100485.47;4977774;28;7510;-72
2023/08/12 06:52:51;;;;;;;;;;;;;;;23.69;68.42;100484.56;4989015;28;6791;-72
2023/08/12 06:55:16;;;;;;;;;;;;;;;23.71;68.69;100493.28;4993295;28;6799;-72
2023/08/12 06:57:42;;;;;;;;;;;;;;;23.72;68.32;100486.31;4991874;28;6944;-73
2023/08/12 07:00:08;;;;;;;;;;;;;;;23.75;68.23;100488.91;4992729;28;6938;-72
2023/08/12 07:02:34;;;;;;;;;;;;;;;23.77;69.05;100483.69;4991968;28;7166;-72
2023/08/12 07:05:00;;;;;;;;;;;;;;;23.81;68.73;100483.66;4996750;28;6791;-72
2023/08/12 07:07:25;;;;;;;;;;;;;;;23.88;68.91;100484.47;4981751;28;7009;-72
2023/08/12 07:09:50;;;;;;;;;;;;;;;23.96;68.65;100487.94;5005385;28;6780;-72
2023/08/12 07:12:16;;;;;;;;;;;;;;;24.04;68.37;100484.38;4977677;28;7023;-72
2023/08/12 07:14:41;;;;;;;;;;;;;;;24.08;68.10;100479.13;4999757;28;6972;-72
2023/08/12 07:17:07;;;;;;;;;;;;;;;24.16;68.07;100486.06;4989922;28;6997;-72
2023/08/12 07:19:32;;;;;;;;;;;;;;;24.21;67.89;100482.53;4981479;28;6784;-72
2023/08/12 07:21:58;;;;;;;;;;;;;;;24.27;67.97;100481.63;4992645;28;6891;-72
2023/08/12 07:24:23;;;;;;;;;;;;;;;24.30;67.62;100483.34;4978560;28;7139;-72
2023/08/12 07:26:49;;;;;;;;;;;;;;;24.31;67.75;100487.72;4999821;28;7021;-72
2023/08/12 07:29:14;;;;;;;;;;;;;;;24.33;67.77;100488.56;4996554;28;6847;-72
2023/08/12 07:31:40;;;;;;;;;;;;;;;24.35;67.71;100487.66;4994772;28;6855;-72
2023/08/12 07:34:05;;;;;;;;;;;;;;;24.41;68.34;100476.28;4986433;28;7206;-72
2023/08/12 07:36:32;;;;;;;;;;;;;;;24.46;68.30;100469.25;4992136;28;6866;-72
2023/08/12 07:38:58;;;;;;;;;;;;;;;24.57;67.89;100474.38;4994546;28;6812;-72
2023/08/12 07:41:27;;;;;;;;;;;;;;;24.66;68.09;100476.91;5014262;28;6840;-72
2023/08/12 07:43:52;;;;;;;;;;;;;;;24.78;68.15;100472.50;4994104;28;6812;-72
2023/08/12 07:46:18;;;;;;;;;;;;;;;24.87;67.89;100467.19;4996602;28;6792;-72
2023/08/12 07:48:43;;;;;;;;;;;;;;;24.90;67.12;100475.00;5012147;28;6783;-72
2023/08/12 07:51:09;;;;;;;;;;;;;;;24.89;67.44;100464.50;4995928;28;7239;-72
2023/08/12 07:53:34;;;;;;;;;;;;;;;24.86;66.74;100475.03;4994997;28;6795;-72
2023/08/12 07:56:00;;;;;;;;;;;;;;;24.77;67.06;100474.22;4988633;28;7046;-72
2023/08/12 07:58:26;;;;;;;;;;;;;;;24.70;67.09;100459.44;4994719;28;6783;-72
2023/08/12 08:00:55;;;;;;;;;;;;;;;24.63;67.12;100468.25;4989710;28;6813;-72
2023/08/12 08:03:20;;;;;;;;;;;;;;;24.58;66.85;100467.41;5000113;28;7243;-72
2023/08/12 08:05:46;;;;;;;;;;;;;;;24.54;67.66;100459.59;4981789;28;6971;-72
2023/08/12 08:08:13;;;;;;;;;;;;;;;24.52;67.12;100477.03;4994886;28;7026;-72
2023/08/12 08:10:38;;;;;;;;;;;;;;;24.48;67.31;100470.09;4995423;28;7087;-72
2023/08/12 08:13:03;;;;;;;;;;;;;;;24.43;66.92;100468.41;4996474;28;6796;-72
2023/08/12 08:15:29;;;;;;;;;;;;;;;24.40;67.42;100469.31;4994843;28;6780;-72
2023/08/12 08:17:54;;;;;;;;;;;;;;;24.39;67.83;100465.84;4992783;28;6780;-72
2023/08/12 08:20:20;;;;;;;;;;;;;;;24.40;67.56;100466.69;4984449;28;6942;-72
2023/08/12 08:22:47;;;;;;;;;;;;;;;24.43;67.59;100461.41;4986377;28;7032;-73
2023/08/12 08:25:12;;;;;;;;;;;;;;;24.53;67.56;100465.72;4987267;28;6984;-72
2023/08/12 08:27:38;;;;;;;;;;;;;;;24.64;67.89;100467.38;4995494;28;6787;-72
2023/08/12 08:30:05;;;;;;;;;;;;;;;24.76;67.77;100469.84;4993469;28;6784;-72
2023/08/12 08:32:30;;;;;;;;;;;;;;;24.88;67.55;100468.03;4995924;28;6804;-72
2023/08/12 08:34:56;;;;;;;;;;;;;;;25.01;67.20;100476.63;4989266;28;7043;-72
2023/08/12 08:37:22;;;;;;;;;;;;;;;25.14;67.65;100474.75;4996341;28;6788;-72
2023/08/12 08:39:47;;;;;;;;;;;;;;;25.28;67.50;100482.47;4985531;28;6796;-72
2023/08/12 08:42:15;;;;;;;;;;;;;;;25.45;67.23;100484.88;4996658;28;6783;-72
2023/08/12 08:44:42;;;;;;;;;;;;;;;25.64;67.52;100489.03;4968817;28;7164;-72
2023/08/12 08:47:08;;;;;;;;;;;;;;;25.84;67.14;100492.28;4982120;28;7161;-72
2023/08/12 08:49:35;;;;;;;;;;;;;;;26.00;66.63;100493.75;4979429;28;6796;-72
2023/08/12 08:52:00;;;;;;;;;;;;;;;26.15;66.41;100497.06;4960913;28;7341;-72
2023/08/12 08:54:27;;;;;;;;;;;;;;;26.27;66.03;100498.66;4994938;28;6800;-72
2023/08/12 08:56:52;;;;;;;;;;;;;;;26.39;65.99;100494.97;4963524;28;7074;-71
2023/08/12 08:59:18;;;;;;;;;;;;;;;26.50;65.75;100486.91;4968131;28;7035;-71
2023/08/12 09:01:46;;;;;;;;;;;;;;;26.65;65.97;100491.88;4993900;28;6796;-71
2023/08/12 09:04:14;;;;;;;;;;;;;;;26.87;65.99;100496.78;4976031;28;7137;-71
2023/08/12 09:06:40;;;;;;;;;;;;;;;27.08;65.29;100489.41;4988671;28;6812;-71
2023/08/12 09:09:10;;;;;;;;;;;;;;;27.22;64.50;100487.34;4977851;28;7019;-71
2023/08/12 09:11:38;;;;;;;;;;;;;;;27.41;65.22;100494.88;4984031;28;6852;-71
2023/08/12 09:14:04;;;;;;;;;;;;;;;27.66;64.86;100495.25;4983859;28;6840;-71
2023/08/12 09:16:30;;;;;;;;;;;;;;;27.89;64.41;100493.00;4986315;28;6876;-71
2023/08/12 09:18:56;;;;;;;;;;;;;;;28.11;63.35;100493.38;4979431;28;6791;-71
2023/08/12 09:21:21;;;;;;;;;;;;;;;28.27;63.42;100481.63;4970804;28;6775;-71
2023/08/12 09:23:48;;;;;;;;;;;;;;;28.44;62.70;100479.44;4976230;28;6870;-71
2023/08/12 09:26:19;;;;;;;;;;;;;;;28.57;62.07;100475.59;4956348;28;6879;-71
2023/08/12 09:28:45;;;;;;;;;;;;;;;28.63;62.07;100475.44;4979658;28;6808;-71
2023/08/12 09:31:25;;;;;;;;;;;;;;;28.58;60.79;100477.31;4991702;28;6800;-71
2023/08/12 09:33:51;;;;;;;;;;;;;;;28.41;60.15;100468.09;4992047;28;7048;-71
2023/08/12 09:36:17;;;;;;;;;;;;;;;28.28;60.02;100485.09;4975134;28;6983;-72
2023/08/12 09:38:43;;;;;;;;;;;;;;;28.16;60.61;100478.34;4984426;28;6954;-71
2023/08/12 09:41:09;;;;;;;;;;;;;;;28.07;60.56;100479.41;4982123;28;6799;-71
2023/08/12 09:43:34;;;;;;;;;;;;;;;28.05;60.44;100480.34;4976365;28;7194;-71
2023/08/12 09:46:00;;;;;;;;;;;;;;;27.99;59.55;100484.88;4966207;28;7150;-71
2023/08/12 09:48:26;;;;;;;;;;;;;;;27.86;59.49;100486.91;4977304;28;6879;-71
2023/08/12 09:50:53;;;;;;;;;;;;;;;27.70;59.88;100498.69;4987446;28;7002;-71
2023/08/12 09:53:18;;;;;;;;;;;;;;;27.51;60.13;100499.03;4957977;28;7081;-70
2023/08/12 09:55:47;;;;;;;;;;;;;;;27.29;60.13;100504.75;4986180;28;6787;-71
2023/08/12 09:58:17;;;;;;;;;;;;;;;27.08;60.62;100506.03;4977174;28;7243;-70
2023/08/12 10:00:45;;;;;;;;;;;;;;;26.88;60.83;100509.06;4969326;28;7223;-73
2023/08/12 10:03:14;;;;;;;;;;;;;;;26.67;61.00;100508.53;4966614;28;7012;-71
2023/08/12 10:05:39;;;;;;;;;;;;;;;26.47;61.54;100509.72;4970974;28;7014;-71
2023/08/12 10:08:05;;;;;;;;;;;;;;;26.29;61.70;100507.41;4971924;28;6784;-71
2023/08/12 10:10:33;;;;;;;;;;;;;;;26.13;62.09;100510.22;4987364;28;6780;-71
2023/08/12 10:12:59;;;;;;;;;;;;;;;25.99;62.71;100512.19;4993209;28;6931;-73
2023/08/12 10:15:25;;;;;;;;;;;;;;;25.92;63.01;100514.88;4976927;28;7230;-73
2023/08/12 10:17:52;;;;;;;;;;;;;;;25.88;63.50;100505.34;4982758;28;6828;-73
2023/08/12 10:20:24;;;;;;;;;;;;;;;25.82;63.57;100515.91;4983263;28;6852;-71
2023/08/12 10:22:50;;;;;;;;;;;;;;;25.81;64.07;100518.53;4990941;28;6796;-71
2023/08/12 10:25:18;;;;;;;;;;;;;;;25.82;64.52;100505.41;4973728;28;8149;-71
2023/08/12 10:27:44;;;;;;;;;;;;;;;25.85;64.55;100510.59;4956367;28;6982;-71
2023/08/12 10:30:10;;;;;;;;;;;;;;;25.88;65.03;100510.59;4987360;28;7798;-71
2023/08/12 10:32:36;;;;;;;;;;;;;;;25.96;65.58;100513.09;4977026;28;6817;-71
2023/08/12 10:35:02;;;;;;;;;;;;;;;26.09;65.25;100503.28;4987570;28;6856;-71
2023/08/12 10:37:32;;;;;;;;;;;;;;;26.27;65.48;100498.66;4965462;28;6988;-71
2023/08/12 10:39:58;;;;;;;;;;;;;;;26.51;65.50;100496.53;4978132;28;7236;-72
2023/08/12 10:42:43;;;;;;;;;;;;;;;26.73;64.69;100495.25;4983040;28;6999;-71
2023/08/12 10:45:14;;;;;;;;;;;;;;;26.92;64.52;100489.69;4990837;28;7274;-72
2023/08/12 10:48:09;;;;;;;;;;;;;;;27.15;64.39;100486.63;4958360;28;7010;-72
2023/08/12 10:50:34;;;;;;;;;;;;;;;27.30;63.96;100488.06;4993334;28;7364;-72
2023/08/12 10:53:21;;;;;;;;;;;;;;;27.45;64.08;100488.66;4992626;28;7131;-72
2023/08/12 10:55:49;;;;;;;;;;;;;;;27.61;64.23;100489.22;4992052;28;7448;-72
2023/08/12 10:58:28;;;;;;;;;;;;;;;27.74;63.48;100479.31;4976849;28;7058;-72
2023/08/12 11:00:55;;;;;;;;;;;;;;;28.03;63.96;100477.78;4975246;28;6831;-71
2023/08/12 11:03:21;;;;;;;;;;;;;;;28.39;64.00;100467.28;4962383;28;6896;-72
2023/08/12 11:05:46;;;;;;;;;;;;;;;28.85;63.27;100472.25;4994456;28;6803;-71
2023/08/12 11:08:13;;;;;;;;;;;;;;;29.23;62.21;100465.03;4974937;28;6784;-72
2023/08/12 11:10:39;;;;;;;;;;;;;;;29.45;60.98;100461.78;4964552;28;7253;-72
2023/08/12 11:13:04;;;;;;;;;;;;;;;29.54;61.00;100463.28;4989211;28;6775;-71
2023/08/12 11:15:47;;;;;;;;;;;;;;;29.62;59.89;100460.41;4986044;28;6979;-72
2023/08/12 11:18:16;;;;;;;;;;;;;;;29.66;58.73;100459.41;4981350;28;7211;-71
2023/08/12 11:20:42;;;;;;;;;;;;;;;29.66;58.91;100460.28;4978776;28;7277;-72
2023/08/12 11:23:09;;;;;;;;;;;;;;;29.57;58.11;100457.06;4994867;28;6807;-72
2023/08/12 11:25:37;;;;;;;;;;;;;;;29.37;57.95;100461.13;4992942;28;7011;-72
2023/08/12 11:28:04;;;;;;;;;;;;;;;29.23;59.19;100462.38;4974896;28;6812;-71
2023/08/12 11:30:30;;;;;;;;;;;;;;;29.38;59.82;100457.59;4978525;28;6843;-73
2023/08/12 11:32:55;;;;;;;;;;;;;;;29.79;59.74;100452.84;4991614;28;7781;-72
2023/08/12 11:35:23;;;;;;;;;;;;;;;30.10;58.41;100458.06;4981869;28;6962;-72
2023/08/12 11:37:56;;;;;;;;;;;;;;;30.30;57.60;100458.25;4973762;28;6831;-73
2023/08/12 11:40:24;;;;;;;;;;;;;;;30.34;56.88;100451.09;4980415;28;7275;-72
2023/08/12 11:42:50;;;;;;;;;;;;;;;30.16;56.12;100460.53;4972361;28;6808;-72
2023/08/12 11:45:19;;;;;;;;;;;;;;;29.73;55.92;100453.00;4983971;28;6824;-73
2023/08/12 11:47:45;;;;;;;;;;;;;;;29.18;55.96;100463.44;4977503;28;6815;-72
2023/08/12 11:50:12;;;;;;;;;;;;;;;28.54;56.29;100471.28;4973362;28;6820;-71
2023/08/12 11:52:39;;;;;;;;;;;;;;;27.91;56.69;100476.28;4956185;28;9752;-72
2023/08/12 11:55:06;;;;;;;;;;;;;;;27.42;58.09;100483.44;4977482;28;6938;-71
2023/08/12 11:57:35;;;;;;;;;;;;;;;27.05;58.76;100481.59;4985421;28;7023;-72
2023/08/12 12:00:04;;;;;;;;;;;;;;;26.73;59.49;100484.75;4977300;28;7134;-72
2023/08/12 12:02:29;;;;;;;;;;;;;;;26.50;59.78;100490.38;4979240;28;6880;-72
2023/08/12 12:04:55;;;;;;;;;;;;;;;26.28;60.42;100505.66;4991119;28;6792;-72
2023/08/12 12:07:25;;;;;;;;;;;;;;;26.07;60.81;100510.28;4990942;28;6788;-72
2023/08/12 12:09:52;;;;;;;;;;;;;;;25.91;61.19;100512.28;4978666;28;7667;-71
2023/08/12 12:12:18;;;;;;;;;;;;;;;25.76;61.48;100516.88;4972933;28;6812;-71
2023/08/12 12:14:43;;;;;;;;;;;;;;;25.67;62.19;100505.59;4982169;28;6798;-71
2023/08/12 12:17:10;;;;;;;;;;;;;;;25.60;62.81;100516.19;4962757;28;7254;-74
2023/08/12 12:19:35;;;;;;;;;;;;;;;25.62;63.83;100524.03;4975827;28;6998;-74
2023/08/12 12:22:05;;;;;;;;;;;;;;;25.77;64.22;100530.84;4981980;28;6980;-74
2023/08/12 12:24:31;;;;;;;;;;;;;;;25.89;63.65;100546.44;4975284;28;6812;-75
2023/08/12 12:26:56;;;;;;;;;;;;;;;25.89;63.39;100533.31;4975472;28;7567;-74
2023/08/12 12:29:22;;;;;;;;;;;;;;;25.88;63.36;100536.84;4976426;28;6904;-74
2023/08/12 12:31:48;;;;;;;;;;;;;;;25.89;63.70;100537.69;4980593;28;7109;-74
2023/08/12 12:34:14;;;;;;;;;;;;;;;25.90;63.42;100545.56;4968324;28;8426;-74
2023/08/12 12:36:39;;;;;;;;;;;;;;;25.85;63.23;100546.50;4975984;28;6943;-74
2023/08/12 12:39:06;;;;;;;;;;;;;;;25.81;63.37;100548.31;4991188;28;6856;-75
2023/08/12 12:41:32;;;;;;;;;;;;;;;25.83;63.67;100541.25;4981558;28;6991;-75
2023/08/12 12:43:59;;;;;;;;;;;;;;;25.99;64.21;100544.53;4976161;28;6812;-75